Time;durP1;ratioP1;P1;durP2;ratioP2;P2;SDS_P1;SDS_P2;PMS_P1;PMS_P2;Temp;Humidity;BMP_temperature;BMP_pressure;BME280_temperature;BME280_humidity;BME280_pressure;Samples;Min_cycle;Max_cycle;Signal;HPM_P1;HPM_P2
2022/04/05 00:04:16;;;;;;;8.13;7.43;;;7.80;95.90;;;;;;10406700;28;20245;-79
2022/04/05 00:09:18;;;;;;;9.87;7.90;;;7.80;97.30;;;;;;10401428;28;20205;-79
2022/04/05 00:14:20;;;;;;;9.40;8.37;;;7.90;96.20;;;;;;10394074;28;20659;-79
2022/04/05 00:19:25;;;;;;;8.80;8.00;;;7.90;96.40;;;;;;10414680;28;20278;-79
2022/04/05 00:24:27;;;;;;;9.30;8.23;;;7.90;95.80;;;;;;10388278;28;20218;-79
2022/04/05 00:29:29;;;;;;;9.53;8.63;;;7.90;96.90;;;;;;10406323;28;20228;-80
2022/04/05 00:34:33;;;;;;;9.63;8.77;;;8.00;95.80;;;;;;10404629;28;20213;-80
2022/04/05 00:39:35;;;;;;;10.17;8.47;;;8.00;96.20;;;;;;10415278;28;20580;-80
2022/04/05 00:44:37;;;;;;;8.10;7.40;;;8.00;96.80;;;;;;10401733;28;20234;-79
2022/04/05 00:49:44;;;;;;;8.40;7.63;;;8.00;94.90;;;;;;10416309;28;20197;-79
2022/04/05 00:54:49;;;;;;;8.70;7.90;;;8.00;96.20;;;;;;10400317;28;20214;-79
2022/04/05 01:00:00;;;;;;;10.70;9.10;;;8.00;96.90;;;;;;10405691;28;20665;-80
2022/04/05 01:05:06;;;;;;;8.63;7.87;;;8.00;97.60;;;;;;10407372;28;20233;-80
2022/04/05 01:10:10;;;;;;;8.90;8.10;;;8.00;95.90;;;;;;10390780;28;20290;-79
2022/04/05 01:15:14;;;;;;;8.57;7.87;;;8.00;95.50;;;;;;10411598;28;20183;-79
2022/04/05 01:20:17;;;;;;;9.17;8.47;;;8.00;95.70;;;;;;10392583;28;20298;-79
2022/04/05 01:25:21;;;;;;;10.03;8.53;;;8.00;96.40;;;;;;10408086;28;20566;-80
2022/04/05 01:30:24;;;;;;;9.50;8.70;;;8.00;96.50;;;;;;10394163;28;20219;-79
2022/04/05 01:35:27;;;;;;;8.20;7.50;;;8.00;97.80;;;;;;10401060;28;20202;-79
2022/04/05 01:40:30;;;;;;;9.13;8.40;;;8.00;99.10;;;;;;10391326;28;20759;-79
2022/04/05 01:45:34;;;;;;;9.40;8.50;;;8.00;96.60;;;;;;10409889;28;20226;-79
2022/04/05 01:50:36;;;;;;;8.30;7.60;;;8.00;98.50;;;;;;10409745;28;20232;-79
2022/04/05 01:55:39;;;;;;;9.47;8.57;;;8.00;97.90;;;;;;10411481;28;20194;-80
2022/04/05 02:00:42;;;;;;;8.90;8.10;;;8.00;98.30;;;;;;10376654;28;20268;-79
2022/04/05 02:05:46;;;;;;;8.87;8.17;;;8.00;97.70;;;;;;10383630;28;20242;-79
2022/04/05 02:10:50;;;;;;;8.87;8.17;;;7.90;99.90;;;;;;10390804;28;20673;-78
2022/04/05 02:15:53;;;;;;;9.83;8.93;;;7.80;99.90;;;;;;10412026;28;20202;-80
2022/04/05 02:20:55;;;;;;;9.63;8.63;;;7.70;99.90;;;;;;10412852;28;20288;-79
2022/04/05 02:25:59;;;;;;;10.53;9.53;;;7.60;99.90;;;;;;10396402;28;20222;-80
2022/04/05 02:31:07;;;;;;;9.73;8.87;;;7.50;99.90;;;;;;10372861;28;20770;-78
2022/04/05 02:36:12;;;;;;;9.87;8.83;;;7.50;99.90;;;;;;10385057;28;20186;-79
2022/04/05 02:41:16;;;;;;;10.17;9.17;;;7.40;99.90;;;;;;10372934;28;20290;-79
2022/04/05 02:46:18;;;;;;;10.43;9.53;;;7.30;99.90;;;;;;10356918;28;20221;-80
2022/04/05 02:51:24;;;;;;;9.40;8.60;;;7.10;99.90;;;;;;10395654;28;20241;-79
2022/04/05 02:56:29;;;;;;;10.67;9.67;;;7.00;99.90;;;;;;10387181;28;20233;-78
2022/04/05 03:01:34;;;;;;;10.83;9.93;;;7.00;99.90;;;;;;10408766;28;20280;-79
2022/04/05 03:06:41;;;;;;;11.07;10.10;;;7.00;99.90;;;;;;10380365;28;20283;-79
2022/04/05 03:11:47;;;;;;;11.07;10.03;;;7.10;99.90;;;;;;10404490;28;20279;-79
2022/04/05 03:16:52;;;;;;;10.77;9.77;;;7.10;99.90;;;;;;10406657;28;20201;-79
2022/04/05 03:21:56;;;;;;;12.27;11.03;;;7.00;99.90;;;;;;10407659;28;20247;-81
2022/04/05 03:26:59;;;;;;;12.43;11.20;;;7.00;99.90;;;;;;10409146;28;20225;-80
2022/04/05 03:32:04;;;;;;;11.80;10.70;;;6.90;99.90;;;;;;10403677;28;20227;-80
2022/04/05 03:37:08;;;;;;;12.80;11.60;;;6.90;99.90;;;;;;10387590;28;20245;-80
2022/04/05 03:42:12;;;;;;;13.10;11.90;;;6.90;99.90;;;;;;10406491;28;20685;-81
2022/04/05 03:47:15;;;;;;;12.03;11.03;;;6.90;99.90;;;;;;10389054;28;20312;-79
2022/04/05 03:52:17;;;;;;;12.73;11.73;;;6.80;99.90;;;;;;10391913;28;20702;-80
2022/04/05 03:57:22;;;;;;;14.10;13.00;;;6.80;99.90;;;;;;10384480;28;20202;-80
2022/04/05 04:02:26;;;;;;;15.23;13.93;;;6.70;99.90;;;;;;10391952;28;20233;-81
2022/04/05 04:07:29;;;;;;;13.13;12.13;;;6.80;99.90;;;;;;10407585;28;20245;-79
2022/04/05 04:12:32;;;;;;;12.30;11.10;;;6.80;99.90;;;;;;10401077;28;20705;-80
2022/04/05 04:17:35;;;;;;;13.13;12.03;;;6.80;99.90;;;;;;10407077;28;20730;-81
2022/04/05 04:22:38;;;;;;;12.53;11.43;;;6.80;99.90;;;;;;10412044;28;20268;-79
2022/04/05 04:27:42;;;;;;;13.40;12.10;;;6.80;99.90;;;;;;10416148;28;20241;-79
2022/04/05 04:32:44;;;;;;;12.17;11.17;;;6.80;99.90;;;;;;10415250;28;20225;-79
2022/04/05 04:37:46;;;;;;;12.67;11.20;;;6.80;99.90;;;;;;10416316;28;20643;-79
2022/04/05 04:42:50;;;;;;;12.90;11.80;;;6.80;99.90;;;;;;10416583;28;20314;-79
2022/04/05 04:47:52;;;;;;;12.37;11.27;;;6.70;99.90;;;;;;10413359;28;20229;-79
2022/04/05 04:52:54;;;;;;;12.40;11.40;;;6.60;99.90;;;;;;10414964;28;20218;-79
2022/04/05 04:58:00;;;;;;;13.27;12.10;;;6.60;99.90;;;;;;10413480;28;20293;-79
2022/04/05 05:03:02;;;;;;;13.20;12.10;;;6.50;99.90;;;;;;10415556;28;20301;-81
2022/04/05 05:08:04;;;;;;;12.77;11.57;;;6.50;99.90;;;;;;10415078;28;20225;-80
2022/04/05 05:13:09;;;;;;;14.60;13.40;;;6.40;99.90;;;;;;10412282;28;20295;-80
2022/04/05 05:18:11;;;;;;;13.60;12.40;;;6.40;99.90;;;;;;10410104;28;20249;-80
2022/04/05 05:23:13;;;;;;;13.60;12.40;;;6.40;99.90;;;;;;10408204;28;20218;-80
2022/04/05 05:28:17;;;;;;;14.80;13.50;;;6.40;99.90;;;;;;10394466;28;20229;-79
2022/04/05 05:33:19;;;;;;;14.73;13.53;;;6.40;99.90;;;;;;10411664;28;20277;-81
2022/04/05 05:38:21;;;;;;;15.77;14.37;;;6.40;99.90;;;;;;10389149;28;20203;-80
2022/04/05 05:43:25;;;;;;;14.93;13.70;;;6.40;99.90;;;;;;10390781;28;20725;-80
2022/04/05 05:48:27;;;;;;;15.00;13.70;;;6.40;99.90;;;;;;10395485;28;20245;-79
2022/04/05 05:53:29;;;;;;;14.20;12.87;;;6.40;99.90;;;;;;10415517;28;20665;-80
2022/04/05 05:58:32;;;;;;;15.23;14.00;;;6.40;99.90;;;;;;10400944;28;20723;-80
2022/04/05 06:03:34;;;;;;;13.70;12.53;;;6.40;99.90;;;;;;10405122;28;20230;-81
2022/04/05 06:08:36;;;;;;;14.13;12.83;;;6.40;99.90;;;;;;10382193;28;20271;-81
2022/04/05 06:13:40;;;;;;;16.53;15.00;;;6.30;99.90;;;;;;10407536;28;20221;-80
2022/04/05 06:18:43;;;;;;;15.33;13.93;;;6.30;99.90;;;;;;10413316;28;20285;-80
2022/04/05 06:23:52;;;;;;;13.13;11.90;;;6.30;99.90;;;;;;10401019;28;20252;-82
2022/04/05 06:28:56;;;;;;;15.67;14.27;;;6.30;99.90;;;;;;10398501;28;20226;-82
2022/04/05 06:34:02;;;;;;;16.83;15.33;;;6.40;99.90;;;;;;10381025;28;20229;-81
2022/04/05 06:39:06;;;;;;;14.13;13.00;;;6.40;99.90;;;;;;10389744;28;20213;-82
2022/04/05 06:44:09;;;;;;;16.03;14.60;;;6.30;99.90;;;;;;10385287;28;20312;-83
2022/04/05 06:49:14;;;;;;;16.13;13.40;;;6.40;99.90;;;;;;10379207;28;20202;-81
2022/04/05 06:54:16;;;;;;;14.97;13.67;;;6.40;99.90;;;;;;10369716;28;20246;-80
2022/04/05 06:59:19;;;;;;;13.40;12.27;;;6.50;99.90;;;;;;10384157;28;20272;-81
2022/04/05 07:04:21;;;;;;;15.73;14.20;;;6.40;99.90;;;;;;10381961;28;20249;-82
2022/04/05 07:09:23;;;;;;;13.50;12.30;;;6.40;99.90;;;;;;10383146;28;20217;-82
2022/04/05 07:14:27;;;;;;;12.90;11.90;;;6.50;99.90;;;;;;10389757;28;20260;-82
2022/04/05 07:19:29;;;;;;;13.30;12.10;;;6.50;99.90;;;;;;10383519;28;20202;-81
2022/04/05 07:24:31;;;;;;;11.67;10.67;;;6.50;99.90;;;;;;10406270;28;20273;-80
2022/04/05 07:29:35;;;;;;;12.17;10.97;;;6.50;99.90;;;;;;10392999;28;20202;-80
2022/04/05 07:34:37;;;;;;;12.83;11.70;;;6.60;99.90;;;;;;10403587;28;20256;-81
2022/04/05 07:39:40;;;;;;;11.97;10.80;;;6.70;99.90;;;;;;10386771;28;20206;-80
2022/04/05 07:44:44;;;;;;;10.70;9.80;;;6.80;99.90;;;;;;10414573;28;20872;-79
2022/04/05 07:49:46;;;;;;;10.47;9.50;;;6.90;99.90;;;;;;10399287;28;20269;-80
2022/04/05 07:54:48;;;;;;;12.03;10.90;;;7.00;99.90;;;;;;10396103;28;20631;-81
2022/04/05 07:59:52;;;;;;;13.93;12.53;;;7.10;99.90;;;;;;10409451;28;20230;-80
2022/04/05 08:04:56;;;;;;;10.27;9.27;;;7.20;99.90;;;;;;10418693;28;20217;-81
2022/04/05 08:09:58;;;;;;;10.50;9.43;;;7.30;99.90;;;;;;10402441;28;20207;-81
2022/04/05 08:15:02;;;;;;;10.93;9.83;;;7.40;99.90;;;;;;10412072;28;20221;-81
2022/04/05 08:20:06;;;;;;;10.70;9.60;;;7.60;99.90;;;;;;10414074;28;20290;-81
2022/04/05 08:25:09;;;;;;;9.23;8.40;;;7.60;99.90;;;;;;10390960;28;20253;-80
2022/04/05 08:30:17;;;;;;;10.27;9.23;;;7.80;99.90;;;;;;10381038;28;20420;-81
2022/04/05 08:35:21;;;;;;;10.53;9.50;;;7.80;99.90;;;;;;10386934;28;20190;-81
2022/04/05 08:40:25;;;;;;;12.00;9.53;;;7.90;99.90;;;;;;10407726;28;20229;-81
2022/04/05 08:45:29;;;;;;;9.73;8.83;;;7.80;99.90;;;;;;10410369;28;20787;-82
2022/04/05 08:50:33;;;;;;;10.13;9.23;;;7.90;99.90;;;;;;10415713;28;20635;-80
2022/04/05 08:55:36;;;;;;;10.60;9.63;;;7.90;99.90;;;;;;10401992;28;20662;-80
2022/04/05 09:00:40;;;;;;;9.10;8.40;;;8.00;99.90;;;;;;10411341;28;20300;-81
2022/04/05 09:05:43;;;;;;;8.90;8.10;;;8.10;99.90;;;;;;10386609;28;20206;-81
2022/04/05 09:10:47;;;;;;;8.37;7.67;;;8.20;99.90;;;;;;10387826;28;20228;-80
2022/04/05 09:15:53;;;;;;;7.73;7.10;;;8.40;99.90;;;;;;10407749;28;20202;-80
2022/04/05 09:20:56;;;;;;;8.80;8.03;;;8.50;99.90;;;;;;10386129;28;20234;-81
2022/04/05 09:26:00;;;;;;;7.33;6.73;;;8.60;99.90;;;;;;10401818;28;20225;-81
2022/04/05 09:31:05;;;;;;;7.63;7.03;;;8.70;99.90;;;;;;10384260;28;20300;-81
2022/04/05 09:36:10;;;;;;;7.90;7.20;;;8.80;99.90;;;;;;10397354;28;20209;-81
2022/04/05 09:41:16;;;;;;;6.97;6.47;;;8.90;99.90;;;;;;10379814;28;20284;-82
2022/04/05 09:46:21;;;;;;;7.57;6.90;;;9.00;99.90;;;;;;10358578;28;20317;-83
2022/04/05 09:51:24;;;;;;;6.90;6.30;;;9.20;99.90;;;;;;10390972;28;20246;-82
2022/04/05 09:56:32;;;;;;;7.60;6.83;;;9.30;99.90;;;;;;10376630;28;20198;-82
2022/04/05 10:01:36;;;;;;;7.17;6.23;;;9.40;99.90;;;;;;10389538;28;20300;-82
2022/04/05 10:06:43;;;;;;;7.17;6.50;;;9.40;99.90;;;;;;10405277;28;20221;-82
2022/04/05 10:11:46;;;;;;;8.30;7.60;;;9.30;99.90;;;;;;10409005;28;20276;-82
2022/04/05 10:16:50;;;;;;;7.87;7.13;;;9.30;99.90;;;;;;10389544;28;20253;-82
2022/04/05 10:21:53;;;;;;;8.20;7.47;;;9.30;99.90;;;;;;10398659;28;20229;-84
2022/04/05 10:26:58;;;;;;;8.77;7.87;;;9.20;99.90;;;;;;10386417;28;20221;-82
2022/04/05 10:32:09;;;;;;;9.70;8.90;;;9.10;99.90;;;;;;10403759;28;20226;-82
2022/04/05 10:37:27;;;;;;;;;;;;;;;;;;;;;
2022/04/05 10:42:35;;;;;;;8.47;7.60;;;9.00;99.90;;;;;;10400852;28;20320;-82
2022/04/05 10:48:13;;;;;;;8.03;7.43;;;9.00;99.90;;;;;;10393913;28;20225;-82
2022/04/05 10:53:18;;;;;;;9.10;8.30;;;9.00;99.90;;;;;;10390245;28;20698;-82
2022/04/05 10:58:23;;;;;;;9.87;8.90;;;9.00;99.90;;;;;;10381111;28;20208;-82
2022/04/05 11:03:26;;;;;;;9.50;8.70;;;9.00;99.90;;;;;;10390587;28;20523;-82
2022/04/05 11:08:29;;;;;;;8.27;7.60;;;9.00;99.90;;;;;;10374570;28;20303;-82
2022/04/05 11:13:39;;;;;;;8.20;7.40;;;9.00;99.90;;;;;;10388499;28;20227;-82
2022/04/05 11:18:45;;;;;;;8.07;7.37;;;9.10;99.90;;;;;;10376384;28;20682;-82
2022/04/05 11:23:49;;;;;;;6.90;6.40;;;9.20;99.90;;;;;;10393477;28;20259;-82
2022/04/05 11:28:51;;;;;;;6.83;6.13;;;9.30;99.90;;;;;;10389450;28;20226;-83
2022/04/05 11:33:55;;;;;;;7.40;6.80;;;9.50;99.90;;;;;;10381905;28;20309;-82
2022/04/05 11:38:59;;;;;;;7.63;6.60;;;9.50;99.90;;;;;;10386129;28;20206;-82
2022/04/05 11:44:03;;;;;;;6.70;6.10;;;9.70;99.90;;;;;;10412986;28;20221;-82
2022/04/05 11:49:08;;;;;;;6.70;6.10;;;9.80;99.90;;;;;;10386348;28;20646;-81
2022/04/05 11:54:12;;;;;;;9.90;6.50;;;9.90;99.90;;;;;;10380108;28;20229;-82
2022/04/05 11:59:15;;;;;;;6.00;5.50;;;9.90;99.90;;;;;;10381369;28;20285;-81
2022/04/05 12:04:22;;;;;;;5.93;5.33;;;9.90;99.90;;;;;;10391643;28;20647;-82
2022/04/05 12:09:34;;;;;;;4.90;4.50;;;10.00;99.90;;;;;;10393282;28;20218;-84
2022/04/05 12:14:39;;;;;;;5.97;5.47;;;10.10;99.90;;;;;;10388639;28;20226;-84
2022/04/05 12:20:12;;;;;;;5.23;4.83;;;10.30;99.90;;;;;;10397882;28;20195;-82
2022/04/05 12:25:23;;;;;;;5.20;4.80;;;10.40;99.90;;;;;;10396555;28;20244;-82
2022/04/05 12:30:38;;;;;;;4.93;4.53;;;10.50;99.90;;;;;;10406943;28;20222;-83
2022/04/05 12:36:07;;;;;;;5.53;5.07;;;10.50;99.90;;;;;;10374830;28;20205;-84
2022/04/05 12:41:14;;;;;;;4.70;4.30;;;10.60;99.90;;;;;;10407450;28;20226;-82
2022/04/05 12:46:18;;;;;;;4.90;4.57;;;10.70;99.90;;;;;;10393593;28;20222;-83
2022/04/05 12:51:37;;;;;;;4.83;4.43;;;10.60;99.90;;;;;;10397136;28;20237;-83
2022/04/05 12:57:00;;;;;;;4.97;4.57;;;10.70;99.90;;;;;;10399645;28;20738;-83
2022/04/05 13:02:31;;;;;;;8.10;7.30;;;10.70;99.90;;;;;;10400064;28;20217;-82
2022/04/05 13:08:13;;;;;;;5.43;5.03;;;10.80;99.90;;;;;;10390774;28;20296;-83
2022/04/05 13:13:20;;;;;;;5.27;4.87;;;10.90;99.90;;;;;;10410203;28;20240;-83
2022/04/05 13:18:33;;;;;;;4.70;4.40;;;10.90;99.90;;;;;;10399484;28;20213;-83
2022/04/05 13:23:37;;;;;;;4.80;4.40;;;10.90;99.90;;;;;;10394160;28;20248;-84
2022/04/05 13:28:39;;;;;;;3.53;3.23;;;10.90;99.90;;;;;;10386560;28;20314;-84
2022/04/05 13:33:42;;;;;;;3.83;3.53;;;11.00;99.90;;;;;;10393079;28;20297;-84
2022/04/05 13:38:46;;;;;;;4.07;3.77;;;11.00;99.90;;;;;;10373130;28;20207;-83
2022/04/05 13:43:54;;;;;;;3.70;3.43;;;11.10;99.90;;;;;;10369776;28;20697;-82
2022/04/05 13:48:59;;;;;;;3.70;3.50;;;11.00;99.90;;;;;;10382057;28;20229;-82
2022/04/05 13:54:03;;;;;;;3.87;3.57;;;11.00;99.90;;;;;;10379028;28;20285;-83
2022/04/05 13:59:11;;;;;;;6.03;5.47;;;11.00;99.90;;;;;;10396621;28;20555;-81
2022/04/05 14:04:30;;;;;;;6.37;5.50;;;11.10;99.90;;;;;;10400918;28;20242;-82
2022/04/05 14:09:35;;;;;;;4.60;4.20;;;11.30;99.90;;;;;;10358203;28;20222;-82
2022/04/05 14:14:37;;;;;;;4.47;4.03;;;11.40;99.90;;;;;;10372040;28;20245;-81
2022/04/05 14:19:42;;;;;;;3.97;3.30;;;11.50;99.90;;;;;;10382229;28;20241;-81
2022/04/05 14:24:45;;;;;;;3.90;3.50;;;11.60;99.90;;;;;;10365633;28;20236;-81
2022/04/05 14:29:47;;;;;;;5.30;3.73;;;11.70;99.90;;;;;;10402549;28;20620;-80
2022/04/05 14:34:50;;;;;;;3.87;3.57;;;11.80;99.90;;;;;;10411767;28;20232;-81
2022/04/05 14:39:53;;;;;;;3.00;2.80;;;11.90;99.90;;;;;;10416185;28;20282;-81
2022/04/05 14:44:55;;;;;;;3.13;2.93;;;12.00;99.90;;;;;;10408205;28;20222;-81
2022/04/05 14:49:58;;;;;;;3.07;2.87;;;12.00;99.90;;;;;;10408138;28;20217;-81
2022/04/05 14:55:01;;;;;;;3.60;3.30;;;12.00;99.90;;;;;;10411141;28;20249;-81
2022/04/05 15:00:05;;;;;;;3.80;3.50;;;12.00;99.90;;;;;;10404490;28;20268;-81
2022/04/05 15:05:08;;;;;;;4.67;4.27;;;11.90;99.90;;;;;;10411110;28;20202;-81
2022/04/05 15:10:12;;;;;;;5.27;4.73;;;11.90;99.90;;;;;;10405619;28;20643;-81
2022/04/05 15:15:16;;;;;;;5.07;4.67;;;11.90;99.90;;;;;;10400620;28;20201;-81
2022/04/05 15:20:19;;;;;;;4.10;3.80;;;11.90;99.90;;;;;;10404889;28;20301;-81
2022/04/05 15:25:22;;;;;;;5.03;4.53;;;11.90;99.90;;;;;;10479824;22;20228;-86
2022/04/05 15:30:25;;;;;;;4.47;4.13;;;11.90;99.90;;;;;;10441480;28;20248;-84
2022/04/05 15:35:27;;;;;;;4.30;3.83;;;11.80;99.90;;;;;;10415989;28;20281;-85
2022/04/05 15:40:31;;;;;;;4.80;4.17;;;11.70;99.90;;;;;;10417591;28;20194;-85
2022/04/05 15:45:33;;;;;;;4.50;4.10;;;11.70;99.90;;;;;;10393182;28;20233;-84
2022/04/05 15:50:36;;;;;;;4.50;3.47;;;11.60;99.90;;;;;;10394795;28;20226;-84
2022/04/05 15:55:40;;;;;;;6.37;4.53;;;11.50;99.90;;;;;;10380532;28;20211;-85
2022/04/05 16:00:42;;;;;;;4.47;4.07;;;11.50;99.90;;;;;;10406680;28;20658;-84
2022/04/05 16:05:44;;;;;;;4.53;4.13;;;11.50;99.90;;;;;;10391515;28;20222;-85
2022/04/05 16:10:48;;;;;;;3.80;3.60;;;11.50;99.90;;;;;;10389850;28;20228;-85
2022/04/05 16:15:50;;;;;;;3.83;3.50;;;11.40;99.90;;;;;;10403528;28;20205;-84
2022/04/05 16:20:52;;;;;;;3.60;3.40;;;11.40;99.90;;;;;;10392073;28;20214;-85
2022/04/05 16:25:58;;;;;;;3.70;3.40;;;11.30;99.90;;;;;;10411177;28;20203;-85
2022/04/05 16:31:00;;;;;;;3.80;3.50;;;11.30;99.90;;;;;;10421976;28;20781;-83
2022/04/05 16:36:02;;;;;;;5.00;4.50;;;11.30;99.90;;;;;;10413446;28;20270;-85
2022/04/05 16:41:06;;;;;;;4.77;4.37;;;11.40;99.90;;;;;;10434962;28;20225;-84
2022/04/05 16:46:09;;;;;;;4.83;3.90;;;11.40;99.90;;;;;;10440109;28;20252;-85
2022/04/05 16:51:11;;;;;;;4.60;4.20;;;11.40;99.90;;;;;;10425258;28;20218;-85
2022/04/05 16:56:14;;;;;;;4.20;3.90;;;11.40;99.90;;;;;;10407195;28;20206;-84
2022/04/05 17:01:17;;;;;;;5.03;4.60;;;11.40;99.90;;;;;;10390391;28;20226;-84
2022/04/05 17:06:20;;;;;;;3.83;3.53;;;11.40;99.90;;;;;;10372083;28;20241;-85
2022/04/05 17:11:28;;;;;;;4.87;4.57;;;11.30;99.90;;;;;;10382872;28;20257;-85
2022/04/05 17:16:32;;;;;;;4.50;3.93;;;11.30;99.90;;;;;;10388733;28;20256;-84
2022/04/05 17:21:34;;;;;;;5.67;5.27;;;11.30;99.90;;;;;;10383967;28;20242;-86
2022/04/05 17:26:38;;;;;;;6.60;5.07;;;11.30;99.90;;;;;;10408354;28;20213;-85
2022/04/05 17:31:42;;;;;;;5.40;4.90;;;11.30;99.90;;;;;;10372690;28;20226;-86
2022/04/05 17:36:45;;;;;;;5.50;5.00;;;11.30;99.90;;;;;;10383388;28;20202;-84
2022/04/05 17:41:48;;;;;;;5.50;5.10;;;11.20;99.90;;;;;;10410191;28;20222;-86
2022/04/05 17:46:51;;;;;;;6.17;5.60;;;11.20;99.90;;;;;;10386265;28;20221;-85
2022/04/05 17:51:53;;;;;;;5.83;5.30;;;11.20;99.90;;;;;;10406026;28;20233;-84
2022/04/05 17:56:58;;;;;;;5.27;4.80;;;11.20;99.90;;;;;;10387782;28;20229;-86
2022/04/05 18:02:00;;;;;;;4.80;4.40;;;11.10;99.90;;;;;;10396310;28;20213;-85
2022/04/05 18:07:08;;;;;;;4.20;3.97;;;11.10;99.90;;;;;;10382424;28;20678;-85
2022/04/05 18:12:13;;;;;;;7.23;4.60;;;11.10;99.90;;;;;;10407320;28;20210;-84
2022/04/05 18:17:16;;;;;;;5.40;4.90;;;11.20;99.90;;;;;;10386795;28;20193;-86
2022/04/05 18:22:18;;;;;;;4.23;3.93;;;11.20;99.90;;;;;;10383895;28;20325;-86
2022/04/05 18:27:22;;;;;;;5.00;4.60;;;11.20;99.90;;;;;;10388075;28;20211;-86
2022/04/05 18:32:25;;;;;;;4.77;4.37;;;11.20;99.90;;;;;;10424411;28;20219;-88
2022/04/05 18:37:27;;;;;;;4.90;4.50;;;11.20;99.90;;;;;;10387874;28;20206;-86
2022/04/05 18:42:31;;;;;;;5.07;4.57;;;11.20;99.90;;;;;;10397585;28;20316;-86
2022/04/05 18:47:34;;;;;;;5.90;5.30;;;11.20;99.90;;;;;;10370275;28;20608;-88
2022/04/05 18:52:37;;;;;;;5.27;4.80;;;11.20;99.90;;;;;;10377151;28;20317;-88
2022/04/05 18:57:41;;;;;;;6.33;5.80;;;11.20;99.90;;;;;;10363468;28;20213;-86
2022/04/05 19:08:43;;;;;;;6.27;5.77;;;11.10;99.90;;;;;;10414669;28;20228;-87
2022/04/05 19:55:57;;;;;;;7.57;6.83;;;11.10;99.90;;;;;;10375225;28;20205;-87
2022/04/05 20:07:57;;;;;;;6.93;6.33;;;11.10;99.90;;;;;;10419589;28;20585;-86
2022/04/05 20:13:09;;;;;;;8.50;7.70;;;11.10;99.90;;;;;;10704005;22;20709;-86
2022/04/05 20:23:33;;;;;;;9.57;7.50;;;11.10;99.90;;;;;;10527024;22;20602;-87
2022/04/05 20:28:35;;;;;;;7.77;7.17;;;11.10;99.90;;;;;;10417075;28;20225;-86
2022/04/05 21:14:26;;;;;;;7.50;5.83;;;11.10;99.90;;;;;;10265347;28;20287;-86
2022/04/05 21:26:06;;;;;;;5.90;5.50;;;11.00;99.90;;;;;;10369463;28;20235;-87
2022/04/05 21:31:08;;;;;;;5.90;5.50;;;11.00;99.90;;;;;;10445767;28;20285;-86
2022/04/05 21:36:10;;;;;;;5.20;4.80;;;11.00;99.90;;;;;;10459048;28;20269;-87
